Time;durP1;ratioP1;P1;durP2;ratioP2;P2;SDS_P1;SDS_P2;PMS_P1;PMS_P2;Temp;Humidity;BMP_temperature;BMP_pressure;BME280_temperature;BME280_humidity;BME280_pressure;Samples;Min_cycle;Max_cycle;Signal;HPM_P1;HPM_P2
2023/03/18 00:00:16;;;;;;;;;;;;;;;20.42;45.75;100403.25;2279105;77;52448;-77
2023/03/18 00:03:19;;;;;;;;;;;;;;;20.47;45.72;100400.78;2275247;77;52784;-77
2023/03/18 00:06:21;;;;;;;;;;;;;;;20.49;45.63;100404.11;2313110;77;51411;-76
2023/03/18 00:09:26;;;;;;;;;;;;;;;20.48;45.67;100404.33;2311748;77;51529;-77
2023/03/18 00:12:31;;;;;;;;;;;;;;;20.45;45.70;100403.69;2312341;77;50283;-76
2023/03/18 00:15:32;;;;;;;;;;;;;;;20.43;45.75;100404.92;2241886;79;22429;-77
2023/03/18 00:18:39;;;;;;;;;;;;;;;20.40;45.83;100406.67;2274446;78;22376;-77
2023/03/18 00:21:41;;;;;;;;;;;;;;;20.36;45.90;100409.44;2275982;77;23089;-76
2023/03/18 00:24:46;;;;;;;;;;;;;;;20.30;45.98;100398.98;2281201;77;50244;-76
2023/03/18 00:27:47;;;;;;;;;;;;;;;20.28;46.07;100402.89;2254376;78;22333;-76
2023/03/18 00:30:49;;;;;;;;;;;;;;;20.29;46.12;100399.98;2220736;78;50789;-77
2023/03/18 00:33:52;;;;;;;;;;;;;;;20.33;46.07;100395.06;2289841;76;50214;-77
2023/03/18 00:36:55;;;;;;;;;;;;;;;20.37;45.99;100392.27;2290363;77;50438;-77
2023/03/18 00:40:03;;;;;;;;;;;;;;;20.43;45.93;100396.86;2287573;77;22378;-77
2023/03/18 00:43:07;;;;;;;;;;;;;;;20.47;45.82;100400.78;2238972;79;22371;-77
2023/03/18 00:49:47;;;;;;;;;;;;;;;20.52;45.69;100394.81;2251235;78;24335;-77
2023/03/18 00:52:52;;;;;;;;;;;;;;;20.49;45.71;100391.19;2276635;78;50670;-77
2023/03/18 00:55:56;;;;;;;;;;;;;;;20.45;45.77;100392.94;2292399;77;22509;-78
2023/03/18 00:59:01;;;;;;;;;;;;;;;20.43;45.85;100390.14;2300172;77;50662;-78
2023/03/18 01:02:02;;;;;;;;;;;;;;;20.37;45.95;100391.78;2254111;77;22313;-77
2023/03/18 01:05:04;;;;;;;;;;;;;;;20.33;46.01;100388.34;2281257;77;51436;-77
2023/03/18 01:08:08;;;;;;;;;;;;;;;20.31;46.08;100384.50;2288476;77;50277;-77
2023/03/18 01:11:09;;;;;;;;;;;;;;;20.32;46.13;100383.98;2274579;78;51466;-78
2023/03/18 01:14:11;;;;;;;;;;;;;;;20.35;46.14;100391.15;2281341;78;51429;-78
2023/03/18 01:17:13;;;;;;;;;;;;;;;20.40;46.03;100391.38;2277204;77;50711;-78
2023/03/18 01:20:16;;;;;;;;;;;;;;;20.45;45.93;100375.99;2245215;78;50165;-77
2023/03/18 01:23:18;;;;;;;;;;;;;;;20.51;45.84;100378.38;2251254;76;50676;-78
2023/03/18 01:26:24;;;;;;;;;;;;;;;20.51;45.83;100383.23;2274891;77;51619;-76
2023/03/18 01:29:28;;;;;;;;;;;;;;;20.48;45.82;100378.80;2259317;77;51539;-76
2023/03/18 01:32:31;;;;;;;;;;;;;;;20.45;45.93;100381.37;2277547;76;51471;-76
2023/03/18 01:35:36;;;;;;;;;;;;;;;20.41;46.00;100378.23;2311549;76;51460;-76
2023/03/18 01:38:39;;;;;;;;;;;;;;;20.38;46.05;100380.51;2285358;77;22324;-76
2023/03/18 01:41:41;;;;;;;;;;;;;;;20.34;46.13;100372.53;2262710;78;50288;-77
2023/03/18 01:44:45;;;;;;;;;;;;;;;20.32;46.19;100369.20;2253125;78;50738;-76
2023/03/18 01:47:51;;;;;;;;;;;;;;;20.31;46.28;100371.59;2242064;79;51527;-77
2023/03/18 01:50:55;;;;;;;;;;;;;;;20.33;46.26;100374.39;2267536;77;51478;-76
2023/03/18 01:54:00;;;;;;;;;;;;;;;20.36;46.21;100371.30;2307957;77;24176;-78
2023/03/18 01:57:01;;;;;;;;;;;;;;;20.42;46.10;100371.84;2288570;77;51460;-78
2023/03/18 02:00:05;;;;;;;;;;;;;;;20.46;46.04;100378.98;2309523;76;50179;-78
2023/03/18 02:03:06;;;;;;;;;;;;;;;20.53;45.91;100369.61;2309661;77;22450;-78
2023/03/18 02:06:12;;;;;;;;;;;;;;;20.52;45.88;100371.44;2271499;77;51607;-78
2023/03/18 02:09:20;;;;;;;;;;;;;;;20.51;45.90;100368.97;2247007;77;51286;-78
2023/03/18 02:12:23;;;;;;;;;;;;;;;20.48;45.98;100380.14;2261870;78;50675;-78
2023/03/18 02:15:26;;;;;;;;;;;;;;;20.44;46.04;100381.86;2312090;77;50697;-78
2023/03/18 02:18:30;;;;;;;;;;;;;;;20.40;46.13;100377.11;2276089;78;50771;-78
2023/03/18 02:21:40;;;;;;;;;;;;;;;20.36;46.21;100375.84;2274451;78;51517;-78
2023/03/18 02:24:47;;;;;;;;;;;;;;;20.32;46.29;100374.58;2274955;77;22388;-78
2023/03/18 02:35:09;;;;;;;;;;;;;;;20.38;46.26;100377.30;2304386;77;22399;-78
2023/03/18 02:38:11;;;;;;;;;;;;;;;20.45;46.16;100374.66;2286788;76;22395;-78
2023/03/18 02:41:16;;;;;;;;;;;;;;;20.51;46.06;100371.66;2249938;77;51053;-78
2023/03/18 02:44:21;;;;;;;;;;;;;;;20.51;46.01;100375.70;2296444;76;50051;-78
2023/03/18 02:47:26;;;;;;;;;;;;;;;20.48;46.03;100366.17;2253699;77;51313;-76
2023/03/18 02:53:50;;;;;;;;;;;;;;;20.42;46.10;100365.63;2240314;78;21949;-77
2023/03/18 02:56:53;;;;;;;;;;;;;;;20.38;46.21;100367.90;2235808;78;51547;-77
2023/03/18 02:59:55;;;;;;;;;;;;;;;20.34;46.28;100365.81;2264185;78;51938;-77
2023/03/18 03:02:58;;;;;;;;;;;;;;;20.31;46.35;100358.16;2221690;79;22281;-78
2023/03/18 03:06:02;;;;;;;;;;;;;;;20.31;46.42;100360.84;2202640;79;51612;-78
2023/03/18 03:09:06;;;;;;;;;;;;;;;20.33;46.40;100361.48;2238563;79;22957;-78
2023/03/18 03:12:08;;;;;;;;;;;;;;;20.36;46.36;100357.86;2213160;79;51914;-77
2023/03/18 03:15:09;;;;;;;;;;;;;;;20.40;46.27;100363.67;2237484;79;50803;-77
2023/03/18 03:18:14;;;;;;;;;;;;;;;20.46;46.14;100362.86;2247025;78;50284;-77
2023/03/18 03:21:17;;;;;;;;;;;;;;;20.48;46.05;100360.80;2235041;78;51530;-77
2023/03/18 03:24:18;;;;;;;;;;;;;;;20.48;46.07;100372.90;2284740;77;50996;-78
2023/03/18 03:27:20;;;;;;;;;;;;;;;20.46;46.09;100376.30;2285330;78;51640;-78
2023/03/18 03:30:27;;;;;;;;;;;;;;;20.42;46.13;100371.84;2283884;76;50290;-78
2023/03/18 03:33:29;;;;;;;;;;;;;;;20.39;46.17;100380.81;2263292;78;22467;-78
2023/03/18 03:36:31;;;;;;;;;;;;;;;20.34;46.27;100377.38;2209852;79;52397;-78
2023/03/18 03:39:36;;;;;;;;;;;;;;;20.30;46.34;100378.00;2233581;78;50752;-78
2023/03/18 03:42:41;;;;;;;;;;;;;;;20.27;46.46;100382.41;2272056;78;23219;-79
2023/03/18 03:45:45;;;;;;;;;;;;;;;20.28;46.50;100381.41;2233331;79;22710;-78
2023/03/18 03:48:49;;;;;;;;;;;;;;;20.32;46.47;100379.95;2235328;78;52012;-77
2023/03/18 03:52:18;;;;;;;;;;;;;;;20.36;46.38;100373.98;2268684;76;51429;-77
2023/03/18 03:55:23;;;;;;;;;;;;;;;20.41;46.30;100370.70;2274036;77;52617;-77
2023/03/18 03:58:26;;;;;;;;;;;;;;;20.44;46.21;100374.31;2274507;77;50149;-78
2023/03/18 04:01:30;;;;;;;;;;;;;;;20.42;46.20;100376.37;2274598;78;50446;-78
2023/03/18 04:04:34;;;;;;;;;;;;;;;20.40;46.23;100369.05;2274430;77;50443;-78
2023/03/18 04:07:41;;;;;;;;;;;;;;;20.37;46.31;100374.80;2274706;78;22447;-78
2023/03/18 04:10:44;;;;;;;;;;;;;;;20.33;46.34;100375.73;2274071;77;22427;-77
2023/03/18 04:13:46;;;;;;;;;;;;;;;20.30;46.45;100378.00;2251175;78;52591;-77
2023/03/18 04:16:47;;;;;;;;;;;;;;;20.26;46.50;100380.77;2274655;78;51333;-77
2023/03/18 04:20:12;;;;;;;;;;;;;;;20.23;46.60;100380.13;2287755;77;51427;-78
2023/03/18 04:23:14;;;;;;;;;;;;;;;20.24;46.64;100382.30;2263303;78;22527;-78
2023/03/18 04:26:17;;;;;;;;;;;;;;;20.29;46.53;100387.08;2287649;77;51245;-78
2023/03/18 04:29:21;;;;;;;;;;;;;;;20.33;46.45;100388.34;2238462;79;51660;-77
2023/03/18 04:32:26;;;;;;;;;;;;;;;20.39;46.39;100388.88;2249991;78;51517;-77
2023/03/18 04:35:34;;;;;;;;;;;;;;;20.42;46.32;100392.50;2272143;78;23173;-77
2023/03/18 04:38:38;;;;;;;;;;;;;;;20.47;46.21;100395.41;2310410;76;22468;-77
2023/03/18 04:41:42;;;;;;;;;;;;;;;20.45;46.19;100390.25;2266682;77;51533;-78
2023/03/18 04:44:44;;;;;;;;;;;;;;;20.43;46.21;100397.69;2269809;78;51440;-77
2023/03/18 04:47:48;;;;;;;;;;;;;;;20.41;46.26;100400.25;2245993;78;50435;-77
2023/03/18 04:50:53;;;;;;;;;;;;;;;20.37;46.32;100411.08;2309542;77;22574;-77
2023/03/18 04:53:55;;;;;;;;;;;;;;;20.33;46.40;100408.50;2268996;78;22484;-77
2023/03/18 04:56:58;;;;;;;;;;;;;;;20.29;46.48;100405.88;2272522;78;51472;-77
2023/03/18 05:00:02;;;;;;;;;;;;;;;20.25;46.56;100415.39;2249692;78;50274;-77
2023/03/18 05:03:07;;;;;;;;;;;;;;;20.28;46.60;100410.95;2289076;77;22355;-77
2023/03/18 05:06:09;;;;;;;;;;;;;;;20.33;46.47;100409.84;2270724;78;22555;-77
2023/03/18 05:09:13;;;;;;;;;;;;;;;20.36;46.45;100411.60;2271095;78;22603;-78
2023/03/18 05:12:15;;;;;;;;;;;;;;;20.41;46.34;100408.31;2234741;79;50247;-78
2023/03/18 05:15:18;;;;;;;;;;;;;;;20.45;46.24;100411.75;2240893;79;52364;-77
2023/03/18 05:18:23;;;;;;;;;;;;;;;20.43;46.25;100408.95;2234881;79;23059;-77
2023/03/18 05:32:19;;;;;;;;;;;;;;;20.32;46.43;100414.88;2248408;78;24472;-78
2023/03/18 05:35:23;;;;;;;;;;;;;;;20.27;46.52;100410.13;2211541;77;50304;-78
2023/03/18 05:38:28;;;;;;;;;;;;;;;20.25;46.60;100407.33;2210001;79;51546;-78
2023/03/18 05:41:31;;;;;;;;;;;;;;;20.27;46.62;100411.97;2205272;80;51447;-78
2023/03/18 05:44:35;;;;;;;;;;;;;;;20.31;46.56;100412.72;2205206;80;50712;-77
2023/03/18 05:47:43;;;;;;;;;;;;;;;20.36;46.47;100415.63;2205096;80;51443;-78
2023/03/18 05:50:45;;;;;;;;;;;;;;;20.41;46.39;100417.72;2233178;79;51606;-79
2023/03/18 05:53:49;;;;;;;;;;;;;;;20.47;46.28;100419.59;2219889;79;50341;-79
2023/03/18 05:56:53;;;;;;;;;;;;;;;20.50;46.17;100417.02;2242734;79;22418;-78
2023/03/18 05:59:55;;;;;;;;;;;;;;;20.47;46.17;100416.91;2255434;77;50339;-78
2023/03/18 06:02:58;;;;;;;;;;;;;;;20.46;46.21;100427.36;2242348;78;50740;-79
2023/03/18 06:06:01;;;;;;;;;;;;;;;20.43;46.24;100419.70;2229878;79;50990;-78
2023/03/18 06:09:03;;;;;;;;;;;;;;;20.39;46.29;100421.95;2241519;79;50322;-79
2023/03/18 06:12:06;;;;;;;;;;;;;;;20.36;46.37;100414.81;2254152;78;50697;-78
2023/03/18 06:15:10;;;;;;;;;;;;;;;20.30;46.44;100419.13;2242452;79;51542;-77
2023/03/18 06:18:16;;;;;;;;;;;;;;;20.30;46.51;100416.97;2271395;78;22466;-78
2023/03/18 06:21:22;;;;;;;;;;;;;;;20.32;46.50;100421.60;2287590;77;50782;-78
2023/03/18 06:24:23;;;;;;;;;;;;;;;20.37;46.43;100421.34;2248966;79;51445;-78
2023/03/18 06:27:27;;;;;;;;;;;;;;;20.42;46.36;100424.75;2287440;77;52392;-79
2023/03/18 06:30:28;;;;;;;;;;;;;;;20.47;46.25;100434.38;2217126;79;52639;-78
2023/03/18 06:33:31;;;;;;;;;;;;;;;20.49;46.17;100439.05;2242149;79;51648;-78
2023/03/18 06:36:33;;;;;;;;;;;;;;;20.50;46.14;100442.55;2277796;77;50700;-77
2023/03/18 06:39:35;;;;;;;;;;;;;;;20.48;46.17;100445.98;2279243;77;50424;-78
2023/03/18 06:42:40;;;;;;;;;;;;;;;20.45;46.22;100444.53;2230408;78;52297;-79
2023/03/18 06:45:41;;;;;;;;;;;;;;;20.40;46.29;100445.12;2279779;78;50782;-79
2023/03/18 06:48:43;;;;;;;;;;;;;;;20.37;46.34;100435.27;2279646;78;51411;-78
2023/03/18 06:51:47;;;;;;;;;;;;;;;20.34;46.39;100443.73;2256402;78;22396;-79
2023/03/18 06:54:53;;;;;;;;;;;;;;;20.32;46.45;100442.61;2256913;78;22438;-76
2023/03/18 06:57:57;;;;;;;;;;;;;;;20.32;46.53;100451.16;2279342;78;50071;-78
2023/03/18 07:01:00;;;;;;;;;;;;;;;20.35;46.49;100452.12;2275770;77;51576;-78
2023/03/18 07:04:02;;;;;;;;;;;;;;;20.40;46.41;100456.39;2274922;78;50706;-78
2023/03/18 07:07:21;;;;;;;;;;;;;;;20.45;46.29;100456.10;2276814;78;51545;-78
2023/03/18 07:14:17;;;;;;;;;;;;;;;20.54;46.13;100476.94;2276247;78;22310;-78
2023/03/18 07:17:21;;;;;;;;;;;;;;;20.54;46.11;100478.77;2275041;78;50225;-78
2023/03/18 07:20:26;;;;;;;;;;;;;;;20.53;46.18;100494.59;2255295;78;52397;-78
2023/03/18 07:23:27;;;;;;;;;;;;;;;20.49;46.25;100491.98;2276816;78;51569;-78
2023/03/18 07:26:29;;;;;;;;;;;;;;;20.46;46.34;100494.55;2255426;78;51544;-78
2023/03/18 07:29:33;;;;;;;;;;;;;;;20.42;46.34;100494.13;2277404;77;50776;-78
2023/03/18 07:50:48;;;;;;;;;;;;;;;20.62;46.08;100500.12;2272933;77;22327;-77
2023/03/18 07:53:51;;;;;;;;;;;;;;;20.61;46.07;100501.17;2270440;77;22334;-77
2023/03/18 07:56:55;;;;;;;;;;;;;;;20.58;46.11;100509.64;2274198;78;23069;-76
2023/03/18 07:59:58;;;;;;;;;;;;;;;20.57;46.23;100514.69;2246889;78;52604;-77
2023/03/18 08:03:02;;;;;;;;;;;;;;;20.56;46.35;100519.23;2250191;78;51540;-76
2023/03/18 08:06:06;;;;;;;;;;;;;;;20.53;46.41;100518.27;2270097;78;22377;-76
2023/03/18 08:09:11;;;;;;;;;;;;;;;20.47;46.40;100531.66;2311204;77;51606;-77
2023/03/18 08:12:15;;;;;;;;;;;;;;;20.44;46.46;100533.70;2289819;77;22403;-76
2023/03/18 08:15:29;;;;;;;;;;;;;;;20.47;46.60;100531.14;2288694;77;22325;-77
2023/03/18 08:18:31;;;;;;;;;;;;;;;20.54;46.58;100526.66;2280579;76;23116;-78
2023/03/18 08:21:34;;;;;;;;;;;;;;;20.62;46.45;100521.64;2312076;77;50287;-78
2023/03/18 08:24:37;;;;;;;;;;;;;;;20.68;46.29;100523.55;2289501;77;22334;-76
2023/03/18 08:27:42;;;;;;;;;;;;;;;20.71;46.19;100535.76;2288576;77;50652;-77
2023/03/18 08:30:45;;;;;;;;;;;;;;;20.71;46.13;100527.17;2311335;77;22465;-77
2023/03/18 08:33:49;;;;;;;;;;;;;;;20.68;46.21;100530.27;2312102;77;50260;-76
2023/03/18 08:36:54;;;;;;;;;;;;;;;20.64;46.26;100531.16;2297055;77;22373;-77
2023/03/18 08:39:55;;;;;;;;;;;;;;;20.61;46.32;100538.81;2280392;78;22645;-77
2023/03/18 08:42:58;;;;;;;;;;;;;;;20.58;46.40;100549.97;2267488;77;50703;-77
2023/03/18 08:46:03;;;;;;;;;;;;;;;20.55;46.45;100540.44;2232265;79;51550;-77
2023/03/18 08:49:09;;;;;;;;;;;;;;;20.52;46.56;100535.41;2235764;79;51442;-77
2023/03/18 08:52:13;;;;;;;;;;;;;;;20.54;46.55;100545.48;2232367;79;50825;-77
2023/03/18 08:55:15;;;;;;;;;;;;;;;20.59;46.48;100540.34;2236179;79;50784;-77
2023/03/18 08:58:19;;;;;;;;;;;;;;;20.64;46.41;100534.38;2271432;78;50338;-77
2023/03/18 09:01:21;;;;;;;;;;;;;;;20.67;46.33;100521.87;2208170;79;51355;-77
2023/03/18 09:04:24;;;;;;;;;;;;;;;20.65;46.31;100525.27;2235381;79;51615;-77
2023/03/18 09:07:27;;;;;;;;;;;;;;;20.62;46.47;100539.94;2242942;79;50459;-77
2023/03/18 09:10:29;;;;;;;;;;;;;;;20.60;46.51;100545.19;2243496;78;50311;-77
2023/03/18 09:17:24;;;;;;;;;;;;;;;20.55;46.63;100555.22;2237039;78;22585;-77
2023/03/18 09:20:36;;;;;;;;;;;;;;;20.50;46.75;100563.02;2264730;78;52836;-77
2023/03/18 09:23:40;;;;;;;;;;;;;;;20.48;46.84;100554.84;2247224;78;50280;-77
2023/03/18 09:26:42;;;;;;;;;;;;;;;20.47;46.94;100551.30;2274884;77;51984;-77
2023/03/18 09:29:46;;;;;;;;;;;;;;;20.51;46.90;100549.88;2272705;76;51841;-77
2023/03/18 09:32:48;;;;;;;;;;;;;;;20.57;46.83;100557.17;2249354;79;50341;-77
2023/03/18 09:35:53;;;;;;;;;;;;;;;20.60;46.80;100551.42;2257280;78;50458;-77
2023/03/18 09:39:06;;;;;;;;;;;;;;;20.63;46.72;100564.98;2278723;78;22474;-77
2023/03/18 09:42:26;;;;;;;;;;;;;;;20.62;46.42;100569.51;2280410;78;22385;-76
2023/03/18 09:45:35;;;;;;;;;;;;;;;20.60;46.48;100571.59;2281183;78;50594;-77
2023/03/18 09:48:50;;;;;;;;;;;;;;;20.57;46.50;100575.98;2259974;78;50294;-77
2023/03/18 09:51:53;;;;;;;;;;;;;;;20.54;46.61;100576.88;2281541;78;22314;-77
2023/03/18 09:55:13;;;;;;;;;;;;;;;20.48;46.70;100578.50;2260325;78;50386;-76
2023/03/18 09:58:22;;;;;;;;;;;;;;;20.45;46.77;100581.08;2249104;79;50297;-77
2023/03/18 10:01:30;;;;;;;;;;;;;;;20.44;46.83;100574.54;2271034;78;51677;-77
2023/03/18 10:04:51;;;;;;;;;;;;;;;20.45;46.86;100564.95;2250846;79;22410;-77
2023/03/18 10:07:55;;;;;;;;;;;;;;;20.52;46.78;100571.69;2251291;79;22327;-76
2023/03/18 10:10:58;;;;;;;;;;;;;;;20.58;46.65;100569.61;2249718;78;50370;-76
2023/03/18 10:14:16;;;;;;;;;;;;;;;20.61;46.55;100569.20;2250158;79;51552;-77
2023/03/18 10:17:37;;;;;;;;;;;;;;;20.62;46.51;100568.68;2251765;79;52386;-77
2023/03/18 10:21:00;;;;;;;;;;;;;;;20.61;46.54;100566.52;2253272;78;51529;-77
2023/03/18 10:24:06;;;;;;;;;;;;;;;20.59;46.58;100571.77;2250341;79;51563;-77
2023/03/18 10:27:17;;;;;;;;;;;;;;;20.53;46.66;100565.30;2250129;79;51379;-77
2023/03/18 10:30:22;;;;;;;;;;;;;;;20.49;46.71;100569.41;2269949;77;22283;-77
2023/03/18 10:33:43;;;;;;;;;;;;;;;20.46;46.79;100567.12;2272775;78;51570;-77
2023/03/18 10:36:56;;;;;;;;;;;;;;;20.43;46.85;100568.34;2270441;78;22449;-76
2023/03/18 10:39:58;;;;;;;;;;;;;;;20.44;46.90;100571.85;2270454;77;51464;-77
2023/03/18 10:43:05;;;;;;;;;;;;;;;20.48;46.86;100561.56;2248880;78;51160;-77
2023/03/18 10:46:10;;;;;;;;;;;;;;;20.54;46.76;100569.67;2270064;78;22523;-77
2023/03/18 10:49:19;;;;;;;;;;;;;;;20.61;46.64;100572.41;2249991;79;22747;-76
2023/03/18 10:52:22;;;;;;;;;;;;;;;20.62;46.60;100568.68;2249817;79;50165;-77
2023/03/18 10:55:30;;;;;;;;;;;;;;;20.62;46.58;100572.72;2245990;79;50807;-77
2023/03/18 10:58:31;;;;;;;;;;;;;;;20.60;46.57;100578.31;2248324;79;51551;-76
2023/03/18 11:01:50;;;;;;;;;;;;;;;20.57;46.66;100575.17;2259742;77;51495;-76
2023/03/18 11:37:36;;;;;;;;;;;;;;;20.60;46.65;100559.48;2249480;79;23393;-76
2023/03/18 11:40:38;;;;;;;;;;;;;;;20.56;46.72;100552.84;2285752;77;51549;-76
2023/03/18 11:43:39;;;;;;;;;;;;;;;20.53;46.82;100560.45;2249543;78;51657;-77
2023/03/18 11:46:56;;;;;;;;;;;;;;;20.48;46.90;100561.56;2249289;78;50615;-76
2023/03/18 11:49:58;;;;;;;;;;;;;;;20.44;46.99;100567.30;2243870;78;50065;-77
2023/03/18 11:53:02;;;;;;;;;;;;;;;20.48;47.02;100573.13;2270387;77;51560;-77
2023/03/18 11:56:21;;;;;;;;;;;;;;;20.54;46.91;100564.30;2269279;78;51589;-77
2023/03/18 11:59:31;;;;;;;;;;;;;;;20.60;46.83;100567.55;2258617;78;50454;-78
2023/03/18 12:06:13;;;;;;;;;;;;;;;20.69;46.60;100558.80;2270093;78;24386;-77
2023/03/18 12:09:20;;;;;;;;;;;;;;;20.70;46.54;100559.63;2270129;78;50377;-78
2023/03/18 12:12:24;;;;;;;;;;;;;;;20.64;46.67;100566.11;2269790;78;52684;-77
2023/03/18 12:15:34;;;;;;;;;;;;;;;20.61;46.73;100565.69;2243965;78;49700;-77
2023/03/18 12:22:28;;;;;;;;;;;;;;;20.58;46.80;100565.58;2264148;78;22502;-77
2023/03/18 12:25:34;;;;;;;;;;;;;;;20.53;46.89;100559.93;2225142;78;51478;-76
2023/03/18 12:28:55;;;;;;;;;;;;;;;20.55;46.98;100566.47;2237339;79;51859;-77
2023/03/18 12:32:07;;;;;;;;;;;;;;;20.58;46.97;100565.58;2248839;79;51633;-77
2023/03/18 12:35:19;;;;;;;;;;;;;;;20.63;46.87;100569.84;2249942;78;21895;-77
2023/03/18 12:38:26;;;;;;;;;;;;;;;20.67;46.79;100564.88;2248971;78;50716;-77
2023/03/18 12:41:34;;;;;;;;;;;;;;;20.64;46.80;100567.45;2238367;79;49638;-77
2023/03/18 12:44:53;;;;;;;;;;;;;;;20.64;46.83;100561.25;2250620;78;22321;-76
2023/03/18 12:47:56;;;;;;;;;;;;;;;20.61;46.88;100563.83;2249865;78;50405;-77
2023/03/18 12:50:59;;;;;;;;;;;;;;;20.56;47.00;100564.94;2251007;79;50638;-76
2023/03/18 12:54:05;;;;;;;;;;;;;;;20.55;47.08;100557.91;2240202;78;51475;-76
2023/03/18 12:57:16;;;;;;;;;;;;;;;20.53;47.13;100565.30;2250542;78;22334;-77
2023/03/18 13:00:23;;;;;;;;;;;;;;;20.52;47.18;100562.28;2263288;77;51569;-77
2023/03/18 13:03:32;;;;;;;;;;;;;;;20.57;47.19;100560.38;2274324;78;50476;-77
2023/03/18 13:06:35;;;;;;;;;;;;;;;20.61;47.16;100566.52;2263529;78;50778;-77
2023/03/18 13:09:43;;;;;;;;;;;;;;;20.65;47.09;100552.15;2284166;77;22439;-79
2023/03/18 13:12:46;;;;;;;;;;;;;;;20.66;47.08;100556.52;2262356;78;50667;-79
2023/03/18 13:16:19;;;;;;;;;;;;;;;20.64;47.15;100551.84;2282028;78;50174;-79
2023/03/18 13:19:22;;;;;;;;;;;;;;;20.59;47.24;100549.75;2257836;78;24239;-80
2023/03/18 13:22:33;;;;;;;;;;;;;;;20.58;47.28;100549.44;2275394;78;22426;-79
2023/03/18 13:25:45;;;;;;;;;;;;;;;20.60;47.26;100546.05;2250254;79;50269;-79
2023/03/18 13:28:52;;;;;;;;;;;;;;;20.58;47.34;100541.38;2265718;78;51568;-79
2023/03/18 13:31:56;;;;;;;;;;;;;;;20.55;47.41;100547.16;2261488;78;50756;-78
2023/03/18 13:35:16;;;;;;;;;;;;;;;20.57;47.44;100549.11;2286649;78;50080;-80
2023/03/18 13:38:31;;;;;;;;;;;;;;;20.61;47.45;100542.84;2296764;77;50376;-79
2023/03/18 13:41:40;;;;;;;;;;;;;;;20.66;47.43;100543.08;2299202;77;51506;-80
2023/03/18 13:44:58;;;;;;;;;;;;;;;20.72;47.32;100544.12;2299189;77;50825;-79
2023/03/18 13:48:03;;;;;;;;;;;;;;;20.74;47.27;100544.77;2265258;77;51434;-78
2023/03/18 13:51:27;;;;;;;;;;;;;;;20.75;47.25;100547.76;2299588;77;22388;-78
2023/03/18 13:54:37;;;;;;;;;;;;;;;20.76;47.24;100543.53;2299569;77;50734;-79
2023/03/18 13:57:49;;;;;;;;;;;;;;;20.76;47.24;100547.56;2298585;77;51554;-79
2023/03/18 14:00:55;;;;;;;;;;;;;;;20.79;47.28;100539.62;2299363;77;51640;-79
2023/03/18 14:04:00;;;;;;;;;;;;;;;20.80;47.31;100538.58;2299513;77;51323;-79
2023/03/18 14:07:18;;;;;;;;;;;;;;;20.75;47.45;100541.03;2285323;77;51575;-79
2023/03/18 14:10:22;;;;;;;;;;;;;;;20.79;47.41;100544.47;2249783;79;23322;-77
2023/03/18 14:13:28;;;;;;;;;;;;;;;20.87;47.39;100543.47;2200117;79;51057;-79
2023/03/18 14:16:34;;;;;;;;;;;;;;;20.90;47.37;100540.89;2249800;79;50784;-78
2023/03/18 14:19:36;;;;;;;;;;;;;;;20.94;47.31;100532.75;2247451;79;51613;-79
2023/03/18 14:22:39;;;;;;;;;;;;;;;20.94;47.35;100534.92;2225938;79;22348;-79
2023/03/18 14:25:44;;;;;;;;;;;;;;;20.89;47.43;100530.66;2249719;79;50345;-79
2023/03/18 14:28:47;;;;;;;;;;;;;;;20.87;47.51;100529.50;2249765;79;22334;-79
2023/03/18 14:31:50;;;;;;;;;;;;;;;20.94;47.38;100525.51;2222320;79;51224;-79
2023/03/18 14:35:31;;;;;;;;;;;;;;;20.86;47.57;100521.66;2249578;79;50856;-79
2023/03/18 14:38:52;;;;;;;;;;;;;;;20.77;47.77;100513.44;2268451;78;22375;-77
2023/03/18 14:41:58;;;;;;;;;;;;;;;20.73;47.88;100514.85;2270565;78;51573;-78
2023/03/18 14:48:39;;;;;;;;;;;;;;;20.72;47.95;100510.52;2269630;78;22393;-79
2023/03/18 14:51:43;;;;;;;;;;;;;;;20.73;47.89;100513.51;2243718;78;51532;-79
2023/03/18 14:54:45;;;;;;;;;;;;;;;20.71;47.93;100516.94;2250115;78;22303;-79
2023/03/18 14:57:49;;;;;;;;;;;;;;;20.66;48.00;100510.29;2270614;78;50786;-79
2023/03/18 15:00:59;;;;;;;;;;;;;;;20.64;48.01;100519.06;2270557;78;50816;-79
2023/03/18 15:04:02;;;;;;;;;;;;;;;20.58;48.10;100515.84;2249085;78;52575;-79
2023/03/18 15:07:04;;;;;;;;;;;;;;;20.58;48.13;100516.36;2275338;78;50693;-79
2023/03/18 15:10:12;;;;;;;;;;;;;;;20.54;48.16;100514.56;2246077;78;50633;-78
2023/03/18 15:13:14;;;;;;;;;;;;;;;20.51;48.23;100509.56;2226782;79;51330;-79
2023/03/18 15:16:19;;;;;;;;;;;;;;;20.53;48.24;100514.75;2227338;79;51096;-79
2023/03/18 15:19:23;;;;;;;;;;;;;;;20.57;48.17;100510.12;2250751;78;22371;-79
2023/03/18 15:22:31;;;;;;;;;;;;;;;20.66;47.99;100508.13;2254128;79;22216;-79
2023/03/18 15:25:37;;;;;;;;;;;;;;;20.68;47.98;100510.59;2251375;79;22382;-79
2023/03/18 15:28:45;;;;;;;;;;;;;;;20.65;47.95;100507.30;2250481;78;50711;-79
2023/03/18 15:31:47;;;;;;;;;;;;;;;20.63;48.02;100508.53;2250879;78;50664;-79
2023/03/18 15:34:53;;;;;;;;;;;;;;;20.61;48.04;100517.30;2252651;79;51482;-78
2023/03/18 15:38:05;;;;;;;;;;;;;;;20.58;48.08;100510.98;2261823;78;50477;-78
2023/03/18 15:41:10;;;;;;;;;;;;;;;20.54;48.15;100525.32;2246529;78;51271;-79
2023/03/18 15:44:23;;;;;;;;;;;;;;;20.52;48.19;100526.52;2272157;78;49895;-79
2023/03/18 15:47:30;;;;;;;;;;;;;;;20.49;48.24;100526.92;2272714;78;51665;-78
2023/03/18 15:50:34;;;;;;;;;;;;;;;20.49;48.28;100519.67;2273101;78;21944;-78
2023/03/18 15:53:41;;;;;;;;;;;;;;;20.55;48.21;100527.48;2249814;78;22499;-78
2023/03/18 15:56:47;;;;;;;;;;;;;;;20.58;48.12;100522.56;2271033;78;51542;-78
2023/03/18 15:59:49;;;;;;;;;;;;;;;20.61;48.02;100532.91;2270884;78;22401;-79
2023/03/18 16:02:52;;;;;;;;;;;;;;;20.61;47.98;100536.12;2233851;79;51350;-79
2023/03/18 16:05:55;;;;;;;;;;;;;;;20.59;48.00;100543.03;2251118;78;22406;-79
2023/03/18 16:08:57;;;;;;;;;;;;;;;20.56;48.04;100535.36;2250336;78;22335;-80
2023/03/18 16:12:02;;;;;;;;;;;;;;;20.55;48.05;100544.96;2224289;79;50750;-79
2023/03/18 16:15:05;;;;;;;;;;;;;;;20.52;48.12;100555.56;2249635;79;51554;-79
2023/03/18 16:18:07;;;;;;;;;;;;;;;20.46;48.18;100555.02;2222907;79;51622;-79
2023/03/18 16:21:14;;;;;;;;;;;;;;;20.44;48.23;100553.04;2250113;79;50884;-79
2023/03/18 16:24:15;;;;;;;;;;;;;;;20.45;48.25;100553.38;2226552;79;51027;-80
2023/03/18 16:31:01;;;;;;;;;;;;;;;20.56;48.10;100552.84;2262691;78;22458;-79
2023/03/18 16:34:05;;;;;;;;;;;;;;;20.63;47.92;100556.92;2287150;78;50577;-78
2023/03/18 16:37:10;;;;;;;;;;;;;;;20.62;47.91;100561.44;2287364;78;52220;-79
2023/03/18 16:40:26;;;;;;;;;;;;;;;20.61;47.91;100561.66;2287498;77;23176;-79
2023/03/18 16:43:29;;;;;;;;;;;;;;;20.59;47.92;100561.84;2236524;78;51759;-79
2023/03/18 16:46:36;;;;;;;;;;;;;;;20.57;47.95;100570.62;2287617;78;51605;-79
2023/03/18 16:49:39;;;;;;;;;;;;;;;20.54;48.01;100576.39;2286713;78;52244;-79
2023/03/18 16:52:46;;;;;;;;;;;;;;;20.48;48.10;100577.16;2287768;78;50713;-79
2023/03/18 16:55:49;;;;;;;;;;;;;;;20.45;48.16;100581.08;2287602;78;22317;-79
2023/03/18 16:58:53;;;;;;;;;;;;;;;20.45;48.21;100585.63;2281782;78;51068;-79
2023/03/18 17:16:18;;;;;;;;;;;;;;;20.61;47.86;100593.40;2347520;76;22343;-79
2023/03/18 17:19:24;;;;;;;;;;;;;;;20.60;47.88;100595.78;2324092;74;51519;-78
2023/03/18 17:22:28;;;;;;;;;;;;;;;20.57;47.93;100600.70;2365891;74;22382;-79
2023/03/18 17:25:31;;;;;;;;;;;;;;;20.51;48.02;100599.61;2320332;74;52475;-79
2023/03/18 17:28:34;;;;;;;;;;;;;;;20.48;48.08;100598.66;2377210;73;22462;-78
2023/03/18 17:31:37;;;;;;;;;;;;;;;20.45;48.12;100600.41;2367905;74;50479;-78
2023/03/18 17:34:40;;;;;;;;;;;;;;;20.44;48.17;100608.96;2347475;74;22886;-78
2023/03/18 17:37:43;;;;;;;;;;;;;;;20.51;48.11;100617.59;2347201;74;51525;-78
2023/03/18 17:40:51;;;;;;;;;;;;;;;20.56;48.04;100616.53;2379160;74;50278;-78
2023/03/18 17:43:54;;;;;;;;;;;;;;;20.59;47.87;100622.33;2380207;73;22350;-79